Time,TemperatureF,DewpointF,PressureIn,WindDirection,WindDirectionDegrees,WindSpeedMPH,WindSpeedGustMPH,Humidity,HourlyPrecipIn,Conditions,Clouds,dailyrainin,SoftwareType,DateUTC
2013-08-31 00:02:00,70.3,66.9,29.88,NW,304,0.0,0.0,89,0.00,,,0.00,Wunderground v.1.13,2013-08-31 04:02:00,
2013-08-31 00:04:00,70.1,66.7,29.88,NW,304,0.0,0.0,89,0.00,,,0.00,Wunderground v.1.13,2013-08-31 04:04:00,
2013-08-31 00:08:00,70.1,66.7,29.88,NW,304,0.0,0.0,89,0.00,,,0.00,Wunderground v.1.13,2013-08-31 04:08:00,
2013-08-31 00:10:00,70.1,66.7,29.88,NW,304,0.0,0.0,89,0.00,,,0.00,Wunderground v.1.13,2013-08-31 04:10:00,
2013-08-31 00:12:00,69.9,66.5,29.88,NW,304,0.0,0.0,89,0.00,,,0.00,Wunderground v.1.13,2013-08-31 04:12:00,
2013-08-31 00:18:00,69.9,66.5,29.87,NW,304,0.0,0.0,89,0.00,,,0.00,Wunderground v.1.13,2013-08-31 04:18:00,
2013-08-31 00:22:00,69.8,66.4,29.87,NW,304,0.0,0.0,89,0.00,,,0.00,Wunderground v.1.13,2013-08-31 04:22:00,
2013-08-31 00:28:00,69.8,66.4,29.87,NW,304,0.0,0.0,89,0.00,,,0.00,Wunderground v.1.13,2013-08-31 04:28:00,
2013-08-31 00:34:00,69.6,66.2,29.88,NW,304,0.0,0.0,89,0.00,,,0.00,Wunderground v.1.13,2013-08-31 04:34:00,
2013-08-31 00:40:00,69.4,66.3,29.88,NW,304,0.0,0.0,90,0.00,,,0.00,Wunderground v.1.13,2013-08-31 04:40:00,
2013-08-31 00:46:00,69.3,66.2,29.87,NW,304,0.0,0.0,90,0.00,,,0.00,Wunderground v.1.13,2013-08-31 04:46:00,
2013-08-31 00:52:00,69.3,66.2,29.87,NW,304,0.0,0.0,90,0.00,,,0.00,Wunderground v.1.13,2013-08-31 04:52:00,
2013-08-31 00:58:00,69.1,66.0,29.87,NW,304,0.0,0.0,90,0.00,,,0.00,Wunderground v.1.13,2013-08-31 04:58:00,
2013-08-31 01:04:00,68.9,65.8,29.88,NW,304,0.0,0.0,90,0.00,,,0.00,Wunderground v.1.13,2013-08-31 05:04:00,
2013-08-31 01:10:00,68.9,65.8,29.88,NW,304,0.0,0.0,90,0.00,,,0.00,Wunderground v.1.13,2013-08-31 05:10:00,
2013-08-31 01:16:00,68.8,65.7,29.88,NW,304,0.0,0.0,90,0.00,,,0.00,Wunderground v.1.13,2013-08-31 05:16:00,
2013-08-31 01:22:00,68.6,65.9,29.88,NW,304,0.0,0.0,91,0.00,,,0.00,Wunderground v.1.13,2013-08-31 05:22:00,
2013-08-31 01:28:00,68.4,65.7,29.88,NW,304,0.0,0.0,91,0.00,,,0.00,Wunderground v.1.13,2013-08-31 05:28:00,
2013-08-31 01:34:00,68.4,65.7,29.88,NW,304,0.0,0.0,91,0.00,,,0.00,Wunderground v.1.13,2013-08-31 05:34:00,
2013-08-31 01:40:00,68.3,65.6,29.88,NW,304,0.0,0.0,91,0.00,,,0.00,Wunderground v.1.13,2013-08-31 05:40:00,
2013-08-31 01:46:00,68.3,65.6,29.87,NW,304,0.0,0.0,91,0.00,,,0.00,Wunderground v.1.13,2013-08-31 05:46:00,
2013-08-31 01:52:00,68.1,65.4,29.87,NW,304,0.0,0.0,91,0.00,,,0.00,Wunderground v.1.13,2013-08-31 05:52:00,
2013-08-31 01:58:00,68.1,65.4,29.87,NW,304,0.0,0.0,91,0.00,,,0.00,Wunderground v.1.13,2013-08-31 05:58:00,
2013-08-31 02:04:00,67.9,65.5,29.87,NW,304,0.0,0.0,92,0.00,,,0.00,Wunderground v.1.13,2013-08-31 06:04:00,
2013-08-31 02:10:00,67.9,65.5,29.87,NW,304,0.0,0.0,92,0.00,,,0.00,Wunderground v.1.13,2013-08-31 06:10:00,
2013-08-31 02:16:00,67.8,65.4,29.88,NW,305,0.0,0.0,92,0.00,,,0.00,Wunderground v.1.13,2013-08-31 06:16:00,
2013-08-31 02:22:00,67.8,65.7,29.88,NW,304,0.0,0.0,93,0.00,,,0.00,Wunderground v.1.13,2013-08-31 06:22:00,
2013-08-31 02:28:00,67.8,65.7,29.88,NW,304,0.0,0.0,93,0.00,,,0.00,Wunderground v.1.13,2013-08-31 06:28:00,
2013-08-31 02:34:00,67.6,65.5,29.87,NW,304,0.0,0.0,93,0.00,,,0.00,Wunderground v.1.13,2013-08-31 06:34:00,
2013-08-31 02:40:00,67.6,65.5,29.87,NW,304,0.0,0.0,93,0.00,,,0.00,Wunderground v.1.13,2013-08-31 06:40:00,
2013-08-31 02:46:00,67.4,65.3,29.87,NW,305,0.0,0.0,93,0.00,,,0.00,Wunderground v.1.13,2013-08-31 06:46:00,
2013-08-31 02:52:00,67.4,65.3,29.87,NW,304,0.0,0.0,93,0.00,,,0.00,Wunderground v.1.13,2013-08-31 06:52:00,
2013-08-31 02:58:00,67.4,65.3,29.87,NW,305,0.0,0.0,93,0.00,,,0.00,Wunderground v.1.13,2013-08-31 06:58:00,
2013-08-31 03:04:00,67.3,65.2,29.87,NW,304,0.0,0.0,93,0.00,,,0.00,Wunderground v.1.13,2013-08-31 07:04:00,
2013-08-31 03:10:00,67.3,65.2,29.87,NW,304,0.0,0.0,93,0.00,,,0.00,Wunderground v.1.13,2013-08-31 07:10:00,
2013-08-31 03:16:00,67.1,65.0,29.87,NW,304,0.0,0.0,93,0.00,,,0.00,Wunderground v.1.13,2013-08-31 07:16:00,
2013-08-31 03:22:00,67.1,65.0,29.87,NW,304,0.0,0.0,93,0.00,,,0.00,Wunderground v.1.13,2013-08-31 07:22:00,
2013-08-31 03:28:00,66.9,64.8,29.87,NW,304,0.0,0.0,93,0.00,,,0.00,Wunderground v.1.13,2013-08-31 07:28:00,
2013-08-31 03:34:00,66.9,64.8,29.86,NW,304,0.0,0.0,93,0.00,,,0.00,Wunderground v.1.13,2013-08-31 07:34:00,
2013-08-31 03:40:00,66.8,64.7,29.86,NW,304,0.0,0.0,93,0.00,,,0.00,Wunderground v.1.13,2013-08-31 07:40:00,
2013-08-31 03:46:00,66.8,64.7,29.87,NW,304,0.0,0.0,93,0.00,,,0.00,Wunderground v.1.13,2013-08-31 07:46:00,
2013-08-31 03:52:00,66.6,64.5,29.87,NW,304,0.0,0.0,93,0.00,,,0.00,Wunderground v.1.13,2013-08-31 07:52:00,
2013-08-31 03:58:00,66.8,65.0,29.87,NW,304,0.0,0.0,94,0.00,,,0.00,Wunderground v.1.13,2013-08-31 07:58:00,
2013-08-31 04:04:00,66.6,64.8,29.87,NW,304,0.0,0.0,94,0.00,,,0.00,Wunderground v.1.13,2013-08-31 08:04:00,
2013-08-31 04:10:00,66.6,64.8,29.87,NW,304,0.0,0.0,94,0.00,,,0.00,Wunderground v.1.13,2013-08-31 08:10:00,
2013-08-31 04:16:00,66.6,64.8,29.87,NW,304,0.0,0.0,94,0.00,,,0.00,Wunderground v.1.13,2013-08-31 08:16:00,
2013-08-31 04:22:00,66.4,64.6,29.87,NW,304,0.0,0.0,94,0.00,,,0.00,Wunderground v.1.13,2013-08-31 08:22:00,
2013-08-31 04:28:00,66.4,64.6,29.87,NW,305,0.0,0.0,94,0.00,,,0.00,Wunderground v.1.13,2013-08-31 08:28:00,
2013-08-31 04:34:00,66.4,64.6,29.87,NW,304,0.0,0.0,94,0.00,,,0.00,Wunderground v.1.13,2013-08-31 08:34:00,
2013-08-31 04:40:00,66.4,64.6,29.87,NW,304,0.0,0.0,94,0.00,,,0.00,Wunderground v.1.13,2013-08-31 08:40:00,
2013-08-31 04:46:00,66.3,64.5,29.87,NW,305,0.0,0.0,94,0.00,,,0.00,Wunderground v.1.13,2013-08-31 08:46:00,
2013-08-31 04:56:00,66.3,64.5,29.87,NW,304,0.0,0.0,94,0.00,,,0.00,Wunderground v.1.13,2013-08-31 08:56:00,
2013-08-31 05:02:00,66.3,64.5,29.87,NW,304,0.0,0.0,94,0.00,,,0.00,Wunderground v.1.13,2013-08-31 09:02:00,
2013-08-31 05:08:00,66.3,64.5,29.87,NW,304,0.0,0.0,94,0.00,,,0.00,Wunderground v.1.13,2013-08-31 09:08:00,
2013-08-31 05:14:00,66.3,64.5,29.87,NW,304,0.0,0.0,94,0.00,,,0.00,Wunderground v.1.13,2013-08-31 09:14:00,
2013-08-31 05:20:00,66.1,64.3,29.87,NW,304,0.0,0.0,94,0.00,,,0.00,Wunderground v.1.13,2013-08-31 09:20:00,
2013-08-31 05:26:00,66.1,64.3,29.87,NW,304,0.0,0.0,94,0.00,,,0.00,Wunderground v.1.13,2013-08-31 09:26:00,
2013-08-31 05:32:00,66.1,64.3,29.86,NW,304,0.0,0.0,94,0.00,,,0.00,Wunderground v.1.13,2013-08-31 09:32:00,
2013-08-31 05:38:00,66.1,64.3,29.86,NW,305,0.0,0.0,94,0.00,,,0.00,Wunderground v.1.13,2013-08-31 09:38:00,
2013-08-31 05:44:00,66.0,64.2,29.86,NW,304,0.0,0.0,94,0.00,,,0.00,Wunderground v.1.13,2013-08-31 09:44:00,
2013-08-31 05:50:00,66.0,64.5,29.86,NW,304,0.0,0.0,95,0.00,,,0.00,Wunderground v.1.13,2013-08-31 09:50:00,
2013-08-31 05:56:00,66.0,64.5,29.86,NW,304,0.0,0.0,95,0.00,,,0.00,Wunderground v.1.13,2013-08-31 09:56:00,
2013-08-31 06:02:00,66.0,64.5,29.86,NW,304,0.0,0.0,95,0.00,,,0.00,Wunderground v.1.13,2013-08-31 10:02:00,
2013-08-31 06:08:00,65.8,64.3,29.86,NW,304,0.0,0.0,95,0.00,,,0.00,Wunderground v.1.13,2013-08-31 10:08:00,
2013-08-31 06:14:00,65.8,64.0,29.86,NW,305,0.0,0.0,94,0.00,,,0.00,Wunderground v.1.13,2013-08-31 10:14:00,
2013-08-31 06:20:00,65.8,64.3,29.86,NW,304,0.0,0.0,95,0.00,,,0.00,Wunderground v.1.13,2013-08-31 10:20:00,
2013-08-31 06:26:00,65.8,64.3,29.86,WNW,301,0.0,0.0,95,0.00,,,0.00,Wunderground v.1.13,2013-08-31 10:26:00,
2013-08-31 06:32:00,65.6,64.1,29.87,NW,304,0.0,0.0,95,0.00,,,0.00,Wunderground v.1.13,2013-08-31 10:32:00,
2013-08-31 06:38:00,65.6,64.1,29.87,NW,304,0.0,0.0,95,0.00,,,0.00,Wunderground v.1.13,2013-08-31 10:38:00,
2013-08-31 06:44:00,65.6,64.1,29.87,NW,304,0.0,0.0,95,0.00,,,0.00,Wunderground v.1.13,2013-08-31 10:44:00,
2013-08-31 06:50:00,65.8,64.3,29.87,NW,305,0.0,0.0,95,0.00,,,0.00,Wunderground v.1.13,2013-08-31 10:50:00,
2013-08-31 06:56:00,65.8,64.3,29.87,NW,305,0.0,0.0,95,0.00,,,0.00,Wunderground v.1.13,2013-08-31 10:56:00,
2013-08-31 07:02:00,65.8,64.3,29.87,NW,304,0.0,0.0,95,0.00,,,0.00,Wunderground v.1.13,2013-08-31 11:02:00,
2013-08-31 07:08:00,65.6,64.1,29.87,NW,304,0.0,0.0,95,0.00,,,0.00,Wunderground v.1.13,2013-08-31 11:08:00,
2013-08-31 07:14:00,65.6,64.1,29.87,NW,304,0.0,0.0,95,0.00,,,0.00,Wunderground v.1.13,2013-08-31 11:14:00,
2013-08-31 07:20:00,65.6,64.1,29.87,NW,304,0.0,0.0,95,0.00,,,0.00,Wunderground v.1.13,2013-08-31 11:20:00,
2013-08-31 07:26:00,65.6,64.1,29.87,NW,304,0.0,0.0,95,0.00,,,0.00,Wunderground v.1.13,2013-08-31 11:26:00,
2013-08-31 07:32:00,65.8,64.6,29.88,NW,305,0.0,0.0,96,0.00,,,0.00,Wunderground v.1.13,2013-08-31 11:32:00,
2013-08-31 07:38:00,66.0,64.8,29.88,NW,305,0.0,0.0,96,0.00,,,0.00,Wunderground v.1.13,2013-08-31 11:38:00,
2013-08-31 07:44:00,66.0,64.8,29.88,NW,305,0.0,0.0,96,0.00,,,0.00,Wunderground v.1.13,2013-08-31 11:44:00,
2013-08-31 07:50:00,66.1,64.9,29.87,NW,305,0.0,0.0,96,0.00,,,0.00,Wunderground v.1.13,2013-08-31 11:50:00,
2013-08-31 07:56:00,66.4,65.2,29.87,NW,305,0.0,0.0,96,0.00,,,0.00,Wunderground v.1.13,2013-08-31 11:56:00,
2013-08-31 08:02:00,66.6,65.7,29.88,NW,304,0.0,0.0,97,0.00,,,0.00,Wunderground v.1.13,2013-08-31 12:02:00,
2013-08-31 08:08:00,67.1,66.2,29.88,NW,304,0.0,0.0,97,0.00,,,0.00,Wunderground v.1.13,2013-08-31 12:08:00,
2013-08-31 08:14:00,67.6,66.7,29.88,NW,304,0.0,0.0,97,0.00,,,0.00,Wunderground v.1.13,2013-08-31 12:14:00,
2013-08-31 08:20:00,68.1,67.2,29.88,NW,304,0.0,0.0,97,0.00,,,0.00,Wunderground v.1.13,2013-08-31 12:20:00,
2013-08-31 08:26:00,68.8,68.2,29.88,NW,305,0.0,0.0,98,0.00,,,0.00,Wunderground v.1.13,2013-08-31 12:26:00,
2013-08-31 08:32:00,69.3,68.7,29.88,NW,304,0.0,0.0,98,0.00,,,0.00,Wunderground v.1.13,2013-08-31 12:32:00,
2013-08-31 08:38:00,69.8,69.2,29.88,NW,305,0.0,0.0,98,0.00,,,0.00,Wunderground v.1.13,2013-08-31 12:38:00,
2013-08-31 08:44:00,70.1,69.5,29.88,NW,304,0.0,0.0,98,0.00,,,0.00,Wunderground v.1.13,2013-08-31 12:44:00,
2013-08-31 08:50:00,70.6,70.0,29.88,NW,304,0.0,0.0,98,0.00,,,0.00,Wunderground v.1.13,2013-08-31 12:50:00,
2013-08-31 08:56:00,71.5,70.9,29.88,NW,313,0.0,0.0,98,0.00,,,0.00,Wunderground v.1.13,2013-08-31 12:56:00,
2013-08-31 09:02:00,72.0,71.1,29.88,NW,313,0.0,0.0,97,0.00,,,0.00,Wunderground v.1.13,2013-08-31 13:02:00,
2013-08-31 09:08:00,72.1,71.2,29.88,NW,313,0.0,0.0,97,0.00,,,0.00,Wunderground v.1.13,2013-08-31 13:08:00,
2013-08-31 09:14:00,72.1,70.9,29.88,NW,313,0.0,0.0,96,0.00,,,0.00,Wunderground v.1.13,2013-08-31 13:14:00,
2013-08-31 09:20:00,72.3,71.1,29.88,NW,313,0.0,0.0,96,0.00,,,0.00,Wunderground v.1.13,2013-08-31 13:20:00,
2013-08-31 09:26:00,72.5,71.3,29.88,NW,313,0.0,0.0,96,0.00,,,0.00,Wunderground v.1.13,2013-08-31 13:26:00,
2013-08-31 09:32:00,72.7,71.5,29.88,NW,313,0.0,0.0,96,0.00,,,0.00,Wunderground v.1.13,2013-08-31 13:32:00,
2013-08-31 09:38:00,72.8,71.6,29.88,NW,313,0.0,0.0,96,0.00,,,0.00,Wunderground v.1.13,2013-08-31 13:38:00,
2013-08-31 09:44:00,73.7,71.9,29.88,NW,313,0.0,0.0,94,0.00,,,0.00,Wunderground v.1.13,2013-08-31 13:44:00,
2013-08-31 09:50:00,75.3,71.5,29.88,NW,313,0.0,0.0,88,0.00,,,0.00,Wunderground v.1.13,2013-08-31 13:50:00,
2013-08-31 09:56:00,76.1,71.6,29.88,NW,313,0.0,0.0,86,0.00,,,0.00,Wunderground v.1.13,2013-08-31 13:56:00,
2013-08-31 10:02:00,76.7,71.5,29.89,NW,313,0.0,0.0,84,0.00,,,0.00,Wunderground v.1.13,2013-08-31 14:02:00,
2013-08-31 10:08:00,77.0,71.4,29.89,NW,313,0.0,0.0,83,0.00,,,0.00,Wunderground v.1.13,2013-08-31 14:08:00,
2013-08-31 10:14:00,77.4,71.8,29.89,NW,313,0.0,0.0,83,0.00,,,0.00,Wunderground v.1.13,2013-08-31 14:14:00,
2013-08-31 10:20:00,77.9,71.6,29.89,NW,313,0.0,0.0,81,0.00,,,0.00,Wunderground v.1.13,2013-08-31 14:20:00,
2013-08-31 10:26:00,78.1,72.2,29.89,NW,313,0.0,0.0,82,0.00,,,0.00,Wunderground v.1.13,2013-08-31 14:26:00,
2013-08-31 10:32:00,78.6,72.3,29.89,NW,319,0.0,0.0,81,0.00,,,0.00,Wunderground v.1.13,2013-08-31 14:32:00,
2013-08-31 10:38:00,79.0,72.3,29.89,NW,319,0.0,0.0,80,0.00,,,0.00,Wunderground v.1.13,2013-08-31 14:38:00,
2013-08-31 10:44:00,79.2,71.7,29.89,NW,319,0.0,0.0,78,0.00,,,0.00,Wunderground v.1.13,2013-08-31 14:44:00,
2013-08-31 10:50:00,79.8,71.9,29.89,NW,323,0.0,0.0,77,0.00,,,0.00,Wunderground v.1.13,2013-08-31 14:50:00,
2013-08-31 10:56:00,80.1,71.8,29.89,NW,323,0.0,0.0,76,0.00,,,0.00,Wunderground v.1.13,2013-08-31 14:56:00,
2013-08-31 11:02:00,80.1,71.5,29.89,NW,323,0.0,0.0,75,0.00,,,0.00,Wunderground v.1.13,2013-08-31 15:02:00,
2013-08-31 11:08:00,80.5,72.2,29.89,NW,323,0.0,0.0,76,0.00,,,0.00,Wunderground v.1.13,2013-08-31 15:08:00,
2013-08-31 11:14:00,80.7,72.0,29.89,NW,323,0.0,0.0,75,0.00,,,0.00,Wunderground v.1.13,2013-08-31 15:14:00,
2013-08-31 11:20:00,80.7,71.6,29.89,NE,49,0.0,0.0,74,0.00,,,0.00,Wunderground v.1.13,2013-08-31 15:20:00,
2013-08-31 11:26:00,80.7,71.2,29.89,SSW,213,0.0,0.0,73,0.00,,,0.00,Wunderground v.1.13,2013-08-31 15:26:00,
2013-08-31 11:32:00,80.7,71.6,29.88,SSW,213,0.0,0.0,74,0.00,,,0.00,Wunderground v.1.13,2013-08-31 15:32:00,
2013-08-31 11:38:00,80.7,71.6,29.88,SSW,213,0.0,0.0,74,0.00,,,0.00,Wunderground v.1.13,2013-08-31 15:38:00,
2013-08-31 11:44:00,81.1,72.0,29.88,SSW,213,0.0,0.0,74,0.00,,,0.00,Wunderground v.1.13,2013-08-31 15:44:00,
2013-08-31 11:50:00,81.1,71.6,29.88,West,277,0.0,0.0,73,0.00,,,0.00,Wunderground v.1.13,2013-08-31 15:50:00,
2013-08-31 11:56:00,81.4,71.1,29.88,West,278,0.0,0.0,71,0.00,,,0.00,Wunderground v.1.13,2013-08-31 15:56:00,
2013-08-31 12:02:00,82.4,71.6,29.87,NNW,329,0.0,0.0,70,0.00,,,0.00,Wunderground v.1.13,2013-08-31 16:02:00,
2013-08-31 12:08:00,82.4,71.2,29.87,NNW,329,0.0,0.0,69,0.00,,,0.00,Wunderground v.1.13,2013-08-31 16:08:00,
2013-08-31 12:14:00,82.0,71.2,29.87,NNW,329,0.0,0.0,70,0.00,,,0.00,Wunderground v.1.13,2013-08-31 16:14:00,
2013-08-31 12:20:00,82.4,72.5,29.87,NNW,329,0.0,0.0,72,0.00,,,0.00,Wunderground v.1.13,2013-08-31 16:20:00,
2013-08-31 12:26:00,82.6,72.7,29.87,NNW,329,0.0,0.0,72,0.00,,,0.00,Wunderground v.1.13,2013-08-31 16:26:00,
2013-08-31 12:32:00,82.4,72.0,29.87,NNW,329,0.0,0.0,71,0.00,,,0.00,Wunderground v.1.13,2013-08-31 16:32:00,
2013-08-31 12:38:00,82.4,72.0,29.87,NNW,329,0.0,0.0,71,0.00,,,0.00,Wunderground v.1.13,2013-08-31 16:38:00,
2013-08-31 12:44:00,83.2,71.5,29.87,NNW,329,0.0,0.0,68,0.00,,,0.00,Wunderground v.1.13,2013-08-31 16:44:00,
2013-08-31 12:50:00,84.0,73.2,29.86,NNW,329,0.0,0.0,70,0.00,,,0.00,Wunderground v.1.13,2013-08-31 16:50:00,
2013-08-31 12:56:00,84.1,71.5,29.86,NNW,344,0.0,0.0,66,0.00,,,0.00,Wunderground v.1.13,2013-08-31 16:56:00,
2013-08-31 13:02:00,84.0,71.0,29.85,NNW,339,0.0,0.0,65,0.00,,,0.00,Wunderground v.1.13,2013-08-31 17:02:00,
2013-08-31 13:08:00,84.3,72.1,29.85,NW,319,0.0,0.0,67,0.00,,,0.00,Wunderground v.1.13,2013-08-31 17:08:00,
2013-08-31 13:14:00,84.0,71.9,29.85,North,8,0.0,0.0,67,0.00,,,0.00,Wunderground v.1.13,2013-08-31 17:14:00,
2013-08-31 13:20:00,84.1,70.6,29.85,North,8,0.0,0.0,64,0.00,,,0.00,Wunderground v.1.13,2013-08-31 17:20:00,
2013-08-31 13:26:00,84.3,71.2,29.85,North,0,0.0,0.0,65,0.00,,,0.00,Wunderground v.1.13,2013-08-31 17:26:00,
2013-08-31 13:32:00,84.3,69.9,29.85,WNW,285,0.0,0.0,62,0.00,,,0.00,Wunderground v.1.13,2013-08-31 17:32:00,
2013-08-31 13:38:00,84.9,69.9,29.85,NW,305,0.0,0.0,61,0.00,,,0.00,Wunderground v.1.13,2013-08-31 17:38:00,
2013-08-31 13:44:00,84.9,70.4,29.85,North,352,0.0,0.0,62,0.00,,,0.00,Wunderground v.1.13,2013-08-31 17:44:00,
2013-08-31 13:50:00,84.9,70.9,29.84,North,352,0.0,0.0,63,0.00,,,0.00,Wunderground v.1.13,2013-08-31 17:50:00,
2013-08-31 13:56:00,84.7,70.7,29.84,North,352,0.0,0.0,63,0.00,,,0.00,Wunderground v.1.13,2013-08-31 17:56:00,
2013-08-31 14:02:00,84.9,69.9,29.84,North,352,0.0,0.0,61,0.00,,,0.00,Wunderground v.1.13,2013-08-31 18:02:00,
2013-08-31 14:08:00,84.9,69.9,29.84,North,350,0.0,0.0,61,0.00,,,0.00,Wunderground v.1.13,2013-08-31 18:08:00,
2013-08-31 14:14:00,84.9,70.9,29.84,North,350,0.0,0.0,63,0.00,,,0.00,Wunderground v.1.13,2013-08-31 18:14:00,
2013-08-31 14:20:00,85.3,69.8,29.84,North,350,0.0,1.0,60,0.00,,,0.00,Wunderground v.1.13,2013-08-31 18:20:00,
2013-08-31 14:26:00,85.5,70.5,29.84,North,350,0.0,0.0,61,0.00,,,0.00,Wunderground v.1.13,2013-08-31 18:26:00,
2013-08-31 14:32:00,85.5,69.5,29.83,North,350,0.0,0.0,59,0.00,,,0.00,Wunderground v.1.13,2013-08-31 18:32:00,
2013-08-31 14:38:00,85.5,70.0,29.83,North,350,0.0,0.0,60,0.00,,,0.00,Wunderground v.1.13,2013-08-31 18:38:00,
2013-08-31 14:44:00,85.5,71.5,29.83,North,350,0.0,0.0,63,0.00,,,0.00,Wunderground v.1.13,2013-08-31 18:44:00,
2013-08-31 14:50:00,85.7,71.2,29.82,NNW,329,0.0,0.0,62,0.00,,,0.00,Wunderground v.1.13,2013-08-31 18:50:00,
2013-08-31 14:56:00,85.9,71.4,29.82,West,263,0.0,0.0,62,0.00,,,0.00,Wunderground v.1.13,2013-08-31 18:56:00,
2013-08-31 15:02:00,85.9,70.4,29.81,West,263,0.0,0.0,60,0.00,,,0.00,Wunderground v.1.13,2013-08-31 19:02:00,
2013-08-31 15:08:00,86.1,71.1,29.81,North,10,0.0,0.0,61,0.00,,,0.00,Wunderground v.1.13,2013-08-31 19:08:00,
2013-08-31 15:14:00,86.3,71.3,29.81,NNW,337,0.0,0.0,61,0.00,,,0.00,Wunderground v.1.13,2013-08-31 19:14:00,
2013-08-31 15:20:00,86.3,70.8,29.81,West,275,0.0,0.0,60,0.00,,,0.00,Wunderground v.1.13,2013-08-31 19:20:00,
2013-08-31 15:26:00,86.3,71.7,29.81,West,275,0.0,0.0,62,0.00,,,0.00,Wunderground v.1.13,2013-08-31 19:26:00,
2013-08-31 15:32:00,86.3,71.7,29.80,NNW,346,0.0,0.0,62,0.00,,,0.00,Wunderground v.1.13,2013-08-31 19:32:00,
2013-08-31 15:40:00,86.1,71.1,29.80,NW,313,0.0,0.0,61,0.00,,,0.00,Wunderground v.1.13,2013-08-31 19:40:00,
2013-08-31 15:46:00,86.7,70.7,29.80,NW,308,0.0,0.0,59,0.00,,,0.00,Wunderground v.1.13,2013-08-31 19:46:00,
2013-08-31 15:52:00,86.7,70.7,29.80,NW,308,0.0,0.0,59,0.00,,,0.00,Wunderground v.1.13,2013-08-31 19:52:00,
2013-08-31 15:58:00,87.0,70.9,29.80,NW,308,0.0,0.0,59,0.00,,,0.00,Wunderground v.1.13,2013-08-31 19:58:00,
2013-08-31 16:04:00,86.7,70.7,29.79,NW,308,0.0,0.0,59,0.00,,,0.00,Wunderground v.1.13,2013-08-31 20:04:00,
2013-08-31 16:10:00,86.7,70.7,29.79,NW,308,0.0,0.0,59,0.00,,,0.00,Wunderground v.1.13,2013-08-31 20:10:00,
2013-08-31 16:16:00,86.7,71.2,29.79,NE,37,0.0,0.0,60,0.00,,,0.00,Wunderground v.1.13,2013-08-31 20:16:00,
2013-08-31 16:22:00,86.5,71.9,29.79,NE,40,0.0,0.0,62,0.00,,,0.00,Wunderground v.1.13,2013-08-31 20:22:00,
2013-08-31 16:28:00,86.5,71.9,29.79,NE,40,0.0,0.0,62,0.00,,,0.00,Wunderground v.1.13,2013-08-31 20:28:00,
2013-08-31 16:34:00,86.5,71.0,29.78,NE,40,0.0,0.0,60,0.00,,,0.00,Wunderground v.1.13,2013-08-31 20:34:00,
2013-08-31 16:40:00,86.5,71.0,29.78,North,0,0.0,0.0,60,0.00,,,0.00,Wunderground v.1.13,2013-08-31 20:40:00,
2013-08-31 16:46:00,86.5,70.5,29.78,North,0,0.0,0.0,59,0.00,,,0.00,Wunderground v.1.13,2013-08-31 20:46:00,
2013-08-31 16:52:00,86.5,70.5,29.78,North,0,0.0,0.0,59,0.00,,,0.00,Wunderground v.1.13,2013-08-31 20:52:00,
2013-08-31 16:58:00,86.5,71.0,29.78,North,0,0.0,0.0,60,0.00,,,0.00,Wunderground v.1.13,2013-08-31 20:58:00,
2013-08-31 17:04:00,86.5,71.5,29.78,North,0,0.0,0.0,61,0.00,,,0.00,Wunderground v.1.13,2013-08-31 21:04:00,
2013-08-31 17:10:00,86.3,70.8,29.78,North,0,0.0,0.0,60,0.00,,,0.00,Wunderground v.1.13,2013-08-31 21:10:00,
2013-08-31 17:16:00,86.1,71.1,29.78,North,0,0.0,0.0,61,0.00,,,0.00,Wunderground v.1.13,2013-08-31 21:16:00,
2013-08-31 17:22:00,85.9,70.9,29.78,North,0,0.0,0.0,61,0.00,,,0.00,Wunderground v.1.13,2013-08-31 21:22:00,
2013-08-31 17:28:00,85.7,71.2,29.78,North,0,0.0,0.0,62,0.00,,,0.00,Wunderground v.1.13,2013-08-31 21:28:00,
2013-08-31 17:34:00,85.7,71.2,29.78,North,0,0.0,0.0,62,0.00,,,0.00,Wunderground v.1.13,2013-08-31 21:34:00,
2013-08-31 17:40:00,85.5,71.0,29.78,North,0,0.0,0.0,62,0.00,,,0.00,Wunderground v.1.13,2013-08-31 21:40:00,
2013-08-31 17:46:00,85.3,71.3,29.79,NE,54,0.0,0.0,63,0.00,,,0.00,Wunderground v.1.13,2013-08-31 21:46:00,
2013-08-31 17:52:00,85.3,71.3,29.79,SSE,155,0.0,0.0,63,0.00,,,0.00,Wunderground v.1.13,2013-08-31 21:52:00,
2013-08-31 17:58:00,85.1,70.6,29.79,SSE,155,0.0,0.0,62,0.00,,,0.00,Wunderground v.1.13,2013-08-31 21:58:00,
2013-08-31 18:04:00,84.9,70.9,29.79,SSE,155,0.0,0.0,63,0.00,,,0.00,Wunderground v.1.13,2013-08-31 22:04:00,
2013-08-31 18:10:00,84.9,71.4,29.79,SSE,155,0.0,0.0,64,0.00,,,0.00,Wunderground v.1.13,2013-08-31 22:10:00,
2013-08-31 18:16:00,84.7,71.2,29.80,SSE,155,0.0,0.0,64,0.00,,,0.00,Wunderground v.1.13,2013-08-31 22:16:00,
2013-08-31 18:22:00,84.5,71.4,29.80,SSE,155,0.0,0.0,65,0.00,,,0.00,Wunderground v.1.13,2013-08-31 22:22:00,
2013-08-31 18:28:00,84.3,71.2,29.80,SSE,155,0.0,0.0,65,0.00,,,0.00,Wunderground v.1.13,2013-08-31 22:28:00,
2013-08-31 18:34:00,84.1,72.0,29.80,SSE,155,0.0,0.0,67,0.00,,,0.00,Wunderground v.1.13,2013-08-31 22:34:00,
2013-08-31 18:40:00,84.0,71.9,29.80,SSE,155,0.0,0.0,67,0.00,,,0.00,Wunderground v.1.13,2013-08-31 22:40:00,
2013-08-31 18:46:00,83.6,72.3,29.79,SSE,155,0.0,0.0,69,0.00,,,0.00,Wunderground v.1.13,2013-08-31 22:46:00,
2013-08-31 18:52:00,83.2,72.0,29.79,SSE,155,0.0,0.0,69,0.00,,,0.00,Wunderground v.1.13,2013-08-31 22:52:00,
2013-08-31 18:58:00,83.0,71.8,29.79,SSE,155,0.0,0.0,69,0.00,,,0.00,Wunderground v.1.13,2013-08-31 22:58:00,
2013-08-31 19:04:00,82.8,72.0,29.79,SSE,155,0.0,0.0,70,0.00,,,0.00,Wunderground v.1.13,2013-08-31 23:04:00,
2013-08-31 19:10:00,82.4,72.5,29.79,SSE,155,0.0,0.0,72,0.00,,,0.00,Wunderground v.1.13,2013-08-31 23:10:00,
2013-08-31 19:16:00,82.0,72.1,29.79,SSE,155,0.0,0.0,72,0.00,,,0.00,Wunderground v.1.13,2013-08-31 23:16:00,
2013-08-31 19:22:00,81.6,72.1,29.79,SSE,155,0.0,0.0,73,0.00,,,0.00,Wunderground v.1.13,2013-08-31 23:22:00,
2013-08-31 19:28:00,81.4,71.9,29.79,SSE,155,0.0,0.0,73,0.00,,,0.00,Wunderground v.1.13,2013-08-31 23:28:00,
2013-08-31 19:34:00,81.1,72.4,29.79,SSE,155,0.0,0.0,75,0.00,,,0.00,Wunderground v.1.13,2013-08-31 23:34:00,
2013-08-31 19:40:00,80.9,72.2,29.79,SSE,155,0.0,0.0,75,0.00,,,0.00,Wunderground v.1.13,2013-08-31 23:40:00,
2013-08-31 19:46:00,80.5,72.2,29.79,SSE,155,0.0,0.0,76,0.00,,,0.00,Wunderground v.1.13,2013-08-31 23:46:00,
2013-08-31 19:52:00,80.1,72.2,29.79,SSE,155,0.0,0.0,77,0.00,,,0.00,Wunderground v.1.13,2013-08-31 23:52:00,
2013-08-31 19:58:00,79.9,72.4,29.79,SSE,155,0.0,0.0,78,0.00,,,0.00,Wunderground v.1.13,2013-08-31 23:58:00,
2013-08-31 20:04:00,79.6,72.1,29.78,SSE,150,0.0,0.0,78,0.00,,,0.00,Wunderground v.1.13,2013-09-01 00:04:00,
2013-08-31 20:10:00,79.4,71.9,29.78,SSE,155,0.0,0.0,78,0.00,,,0.00,Wunderground v.1.13,2013-09-01 00:10:00,
2013-08-31 20:16:00,79.0,71.9,29.79,SSE,155,0.0,0.0,79,0.00,,,0.00,Wunderground v.1.13,2013-09-01 00:16:00,
2013-08-31 20:22:00,78.8,72.1,29.79,SSE,155,0.0,0.0,80,0.00,,,0.00,Wunderground v.1.13,2013-09-01 00:22:00,
2013-08-31 20:28:00,78.6,71.9,29.79,SSE,155,0.0,0.0,80,0.00,,,0.00,Wunderground v.1.13,2013-09-01 00:28:00,
2013-08-31 20:34:00,78.5,72.2,29.80,SSE,155,0.0,0.0,81,0.00,,,0.00,Wunderground v.1.13,2013-09-01 00:34:00,
2013-08-31 20:40:00,78.3,72.3,29.80,SSE,155,0.0,0.0,82,0.00,,,0.00,Wunderground v.1.13,2013-09-01 00:40:00,
2013-08-31 20:46:00,78.1,72.2,29.81,SSE,155,0.0,0.0,82,0.00,,,0.00,Wunderground v.1.13,2013-09-01 00:46:00,
2013-08-31 20:52:00,77.9,72.0,29.81,SSE,155,0.0,0.0,82,0.00,,,0.00,Wunderground v.1.13,2013-09-01 00:52:00,
2013-08-31 20:58:00,77.7,71.8,29.81,SSE,155,0.0,0.0,82,0.00,,,0.00,Wunderground v.1.13,2013-09-01 00:58:00,
2013-08-31 21:04:00,77.6,72.0,29.81,SSE,155,0.0,0.0,83,0.00,,,0.00,Wunderground v.1.13,2013-09-01 01:04:00,
2013-08-31 21:10:00,77.4,72.2,29.81,SSE,155,0.0,0.0,84,0.00,,,0.00,Wunderground v.1.13,2013-09-01 01:10:00,
2013-08-31 21:16:00,77.2,72.0,29.82,SSE,155,0.0,0.0,84,0.00,,,0.00,Wunderground v.1.13,2013-09-01 01:16:00,
2013-08-31 21:22:00,77.2,72.0,29.82,SSE,155,0.0,0.0,84,0.00,,,0.00,Wunderground v.1.13,2013-09-01 01:22:00,
2013-08-31 21:28:00,77.0,71.8,29.82,SSE,155,0.0,0.0,84,0.00,,,0.00,Wunderground v.1.13,2013-09-01 01:28:00,
2013-08-31 21:34:00,76.8,71.9,29.82,SSE,155,0.0,0.0,85,0.00,,,0.00,Wunderground v.1.13,2013-09-01 01:34:00,
2013-08-31 21:40:00,76.8,72.3,29.82,SSE,155,0.0,0.0,86,0.00,,,0.00,Wunderground v.1.13,2013-09-01 01:40:00,
2013-08-31 21:46:00,76.7,72.2,29.82,NNW,337,0.0,0.0,86,0.00,,,0.00,Wunderground v.1.13,2013-09-01 01:46:00,
2013-08-31 21:52:00,76.5,72.3,29.82,NNW,337,0.0,0.0,87,0.00,,,0.00,Wunderground v.1.13,2013-09-01 01:52:00,
2013-08-31 21:58:00,76.5,72.3,29.82,NNW,337,0.0,0.0,87,0.00,,,0.00,Wunderground v.1.13,2013-09-01 01:58:00,
2013-08-31 22:04:00,76.3,72.1,29.83,NNW,337,0.0,0.0,87,0.00,,,0.00,Wunderground v.1.13,2013-09-01 02:04:00,
2013-08-31 22:10:00,76.3,72.1,29.83,NNW,337,0.0,0.0,87,0.00,,,0.00,Wunderground v.1.13,2013-09-01 02:10:00,
2013-08-31 22:16:00,76.1,72.3,29.82,NNW,337,0.0,0.0,88,0.00,,,0.00,Wunderground v.1.13,2013-09-01 02:16:00,
2013-08-31 22:22:00,76.1,72.3,29.82,NNW,337,0.0,0.0,88,0.00,,,0.00,Wunderground v.1.13,2013-09-01 02:22:00,
2013-08-31 22:28:00,76.1,72.3,29.82,NNW,337,0.0,0.0,88,0.00,,,0.00,Wunderground v.1.13,2013-09-01 02:28:00,
2013-08-31 22:34:00,76.1,72.3,29.82,NNW,337,0.0,0.0,88,0.00,,,0.00,Wunderground v.1.13,2013-09-01 02:34:00,
2013-08-31 22:40:00,76.1,71.9,29.82,NNW,337,0.0,0.0,87,0.00,,,0.00,Wunderground v.1.13,2013-09-01 02:40:00,
2013-08-31 22:46:00,76.0,71.8,29.82,NNW,337,0.0,0.0,87,0.00,,,0.00,Wunderground v.1.13,2013-09-01 02:46:00,
2013-08-31 22:52:00,76.0,71.8,29.82,NNW,337,0.0,0.0,87,0.00,,,0.00,Wunderground v.1.13,2013-09-01 02:52:00,
2013-08-31 22:58:00,76.0,72.2,29.82,NNW,337,0.0,0.0,88,0.00,,,0.00,Wunderground v.1.13,2013-09-01 02:58:00,
2013-08-31 23:04:00,75.8,72.0,29.82,NNW,337,0.0,0.0,88,0.00,,,0.00,Wunderground v.1.13,2013-09-01 03:04:00,
2013-08-31 23:10:00,75.8,72.0,29.82,NNW,337,0.0,0.0,88,0.00,,,0.00,Wunderground v.1.13,2013-09-01 03:10:00,
2013-08-31 23:16:00,75.8,72.0,29.82,NNW,337,0.0,0.0,88,0.00,,,0.00,Wunderground v.1.13,2013-09-01 03:16:00,
2013-08-31 23:22:00,75.8,72.0,29.82,NNW,337,0.0,0.0,88,0.00,,,0.00,Wunderground v.1.13,2013-09-01 03:22:00,
2013-08-31 23:28:00,75.8,72.0,29.82,NNW,337,0.0,0.0,88,0.00,,,0.00,Wunderground v.1.13,2013-09-01 03:28:00,
2013-08-31 23:34:00,75.6,72.1,29.81,NNW,337,0.0,0.0,89,0.00,,,0.00,Wunderground v.1.13,2013-09-01 03:34:00,
2013-08-31 23:40:00,75.6,72.1,29.81,NNW,337,0.0,0.0,89,0.00,,,0.00,Wunderground v.1.13,2013-09-01 03:40:00,
2013-08-31 23:46:00,75.4,71.9,29.81,NNW,337,0.0,0.0,89,0.00,,,0.00,Wunderground v.1.13,2013-09-01 03:46:00,
2013-08-31 23:52:00,75.4,71.9,29.81,NNW,337,0.0,0.0,89,0.00,,,0.00,Wunderground v.1.13,2013-09-01 03:52:00,
2013-08-31 23:58:00,75.3,71.8,29.81,NNW,337,0.0,0.0,89,0.00,,,0.00,Wunderground v.1.13,2013-09-01 03:58:00,